createdAt,value
2023-06-21T00:01:43.314Z,19.52
2023-06-21T00:04:12.196Z,19.48
2023-06-21T00:06:39.474Z,19.49
2023-06-21T00:09:07.031Z,19.53
2023-06-21T00:11:34.225Z,19.53
2023-06-21T00:14:02.769Z,19.52
2023-06-21T00:16:29.381Z,19.59
2023-06-21T00:18:56.119Z,19.52
2023-06-21T00:21:23.142Z,19.46
2023-06-21T00:23:50.107Z,19.41
2023-06-21T00:26:16.762Z,19.35
2023-06-21T00:28:54.263Z,19.27
2023-06-21T00:31:24.785Z,19.25
2023-06-21T00:33:56.356Z,19.27
2023-06-21T00:36:25.393Z,19.30
2023-06-21T00:38:52.304Z,19.33
2023-06-21T00:41:27.654Z,19.34
2023-06-21T00:43:54.675Z,19.32
2023-06-21T00:46:22.855Z,19.28
2023-06-21T00:48:54.027Z,19.22
2023-06-21T00:51:21.099Z,19.21
2023-06-21T00:53:48.626Z,19.19
2023-06-21T00:56:17.963Z,19.13
2023-06-21T00:58:45.387Z,19.08
2023-06-21T01:01:12.216Z,19.01
2023-06-21T01:03:42.062Z,19.01
2023-06-21T01:06:30.873Z,19.04
2023-06-21T01:09:14.823Z,19.09
2023-06-21T01:11:55.055Z,19.09
2023-06-21T01:15:04.518Z,19.12
2023-06-21T01:17:36.201Z,19.10
2023-06-21T01:20:44.107Z,19.06
2023-06-21T01:23:30.485Z,18.99
2023-06-21T01:26:21.303Z,18.90
2023-06-21T01:29:17.199Z,18.91
2023-06-21T01:31:51.557Z,18.86
2023-06-21T01:34:42.247Z,18.83
2023-06-21T01:37:29.774Z,18.73
2023-06-21T01:40:07.250Z,18.70
2023-06-21T01:45:24.690Z,18.85
2023-06-21T01:47:55.665Z,18.80
2023-06-21T01:50:25.549Z,18.79
2023-06-21T01:52:53.207Z,18.85
2023-06-21T01:55:21.577Z,18.88
2023-06-21T01:57:48.963Z,18.83
2023-06-21T02:00:22.710Z,18.84
2023-06-21T02:02:56.473Z,18.86
2023-06-21T02:05:24.842Z,18.88
2023-06-21T02:08:01.972Z,18.87
2023-06-21T02:10:36.683Z,18.83
2023-06-21T02:13:05.851Z,18.80
2023-06-21T02:18:32.119Z,18.77
2023-06-21T02:21:07.897Z,18.77
2023-06-21T02:23:46.204Z,18.82
2023-06-21T02:26:18.821Z,18.85
2023-06-21T02:28:47.534Z,18.83
2023-06-21T02:31:25.585Z,18.84
2023-06-21T02:37:18.769Z,18.86
2023-06-21T02:40:08.713Z,18.82
2023-06-21T02:42:49.116Z,18.79
2023-06-21T02:45:20.146Z,18.70
2023-06-21T02:47:47.919Z,18.67
2023-06-21T02:50:18.689Z,18.66
2023-06-21T02:52:45.766Z,18.66
2023-06-21T02:55:12.950Z,18.62
2023-06-21T02:57:42.798Z,18.59
2023-06-21T03:00:31.424Z,18.61
2023-06-21T03:03:05.801Z,18.62
2023-06-21T03:05:41.002Z,18.63
2023-06-21T03:08:30.765Z,18.62
2023-06-21T03:17:49.562Z,18.57
2023-06-21T03:21:07.313Z,18.59
2023-06-21T03:23:55.256Z,18.56
2023-06-21T03:26:46.591Z,18.47
2023-06-21T03:30:08.397Z,18.46
2023-06-21T03:32:49.356Z,18.43
2023-06-21T03:35:20.263Z,18.40
2023-06-21T03:37:51.631Z,18.38
2023-06-21T03:40:23.768Z,18.40
2023-06-21T03:42:50.378Z,18.40
2023-06-21T03:45:17.041Z,18.47
2023-06-21T03:47:50.094Z,18.53
2023-06-21T03:50:17.567Z,18.56
2023-06-21T03:52:46.477Z,18.59
2023-06-21T03:55:13.105Z,18.61
2023-06-21T03:57:39.686Z,18.61
2023-06-21T04:00:10.122Z,18.66
2023-06-21T04:02:42.844Z,18.68
2023-06-21T04:05:12.766Z,18.71
2023-06-21T04:07:39.894Z,18.71
2023-06-21T04:10:07.260Z,18.76
2023-06-21T04:12:33.876Z,18.77
2023-06-21T04:15:04.954Z,18.75
2023-06-21T04:17:32.596Z,18.77
2023-06-21T04:19:59.472Z,18.76
2023-06-21T04:22:26.256Z,18.78
2023-06-21T04:24:53.333Z,18.79
2023-06-21T04:27:20.124Z,18.84
2023-06-21T04:29:49.229Z,18.97
2023-06-21T04:32:15.793Z,19.13
2023-06-21T04:34:44.635Z,19.29
2023-06-21T04:37:11.293Z,19.45
2023-06-21T04:39:37.851Z,19.67
2023-06-21T04:42:04.881Z,19.81
2023-06-21T04:44:31.504Z,19.86
2023-06-21T04:47:01.651Z,19.95
2023-06-21T04:49:30.073Z,20.14
2023-06-21T04:51:59.210Z,20.16
2023-06-21T04:54:26.781Z,20.03
2023-06-21T04:56:53.643Z,20.00
2023-06-21T04:59:20.209Z,20.09
2023-06-21T05:01:46.902Z,20.08
2023-06-21T05:04:13.681Z,19.87
2023-06-21T05:06:41.838Z,19.95
2023-06-21T05:09:10.030Z,20.11
2023-06-21T05:11:37.778Z,20.30
2023-06-21T05:14:05.602Z,20.41
2023-06-21T05:16:32.996Z,20.57
2023-06-21T05:18:59.550Z,20.74
2023-06-21T05:21:26.065Z,20.80
2023-06-21T05:23:52.631Z,20.57
2023-06-21T05:26:19.166Z,20.59
2023-06-21T05:28:45.669Z,20.76
2023-06-21T05:31:12.238Z,21.01
2023-06-21T05:33:38.750Z,21.28
2023-06-21T05:36:05.520Z,21.70
2023-06-21T05:38:31.987Z,22.95
2023-06-21T05:40:58.448Z,23.35
2023-06-21T05:43:25.012Z,24.38
2023-06-21T05:45:51.482Z,24.29
2023-06-21T05:48:19.132Z,24.02
2023-06-21T05:50:45.753Z,24.56
2023-06-21T05:53:12.383Z,25.28
2023-06-21T05:55:39.021Z,25.38
2023-06-21T05:58:07.170Z,24.05
2023-06-21T06:00:33.670Z,23.35
2023-06-21T06:03:00.169Z,23.02
2023-06-21T06:05:26.691Z,24.88
2023-06-21T06:07:53.172Z,25.61
2023-06-21T06:10:19.684Z,25.32
2023-06-21T06:12:46.223Z,25.22
2023-06-21T06:15:15.249Z,25.68
2023-06-21T06:17:41.826Z,24.43
2023-06-21T06:20:08.974Z,23.48
2023-06-21T06:22:38.466Z,23.06
2023-06-21T06:25:05.401Z,22.83
2023-06-21T06:27:32.254Z,22.70
2023-06-21T06:29:59.232Z,22.61
2023-06-21T06:32:28.115Z,22.52
2023-06-21T06:34:54.670Z,22.70
2023-06-21T06:37:26.204Z,22.67
2023-06-21T06:39:55.970Z,22.78
2023-06-21T06:42:22.511Z,23.44
2023-06-21T06:44:49.119Z,25.26
2023-06-21T06:47:15.654Z,25.92
2023-06-21T06:49:42.346Z,24.93
2023-06-21T06:52:11.365Z,24.23
2023-06-21T06:54:37.837Z,24.94
2023-06-21T06:57:04.580Z,26.71
2023-06-21T06:59:31.675Z,26.95
2023-06-21T07:01:58.486Z,27.41
2023-06-21T07:04:26.868Z,26.53
2023-06-21T07:06:53.778Z,27.72
2023-06-21T07:09:20.208Z,29.88
2023-06-21T07:11:46.724Z,30.65
2023-06-21T07:14:13.346Z,31.64
2023-06-21T07:16:45.237Z,32.72
2023-06-21T07:19:11.842Z,33.18
2023-06-21T07:21:40.208Z,33.19
2023-06-21T07:24:06.693Z,33.49
2023-06-21T07:26:34.591Z,33.96
2023-06-21T07:29:02.003Z,34.18
2023-06-21T07:31:28.804Z,34.55
2023-06-21T07:33:57.690Z,33.70
2023-06-21T07:36:24.547Z,31.34
2023-06-21T07:38:53.310Z,30.00
2023-06-21T07:41:20.018Z,29.20
2023-06-21T07:43:46.515Z,30.06
2023-06-21T07:46:16.166Z,32.06
2023-06-21T07:48:42.981Z,33.56
2023-06-21T07:51:10.196Z,34.26
2023-06-21T07:53:36.724Z,33.40
2023-06-21T07:56:03.224Z,33.47
2023-06-21T07:58:30.053Z,33.25
2023-06-21T08:00:56.615Z,33.76
2023-06-21T08:03:23.389Z,33.77
2023-06-21T08:05:49.951Z,33.99
2023-06-21T08:08:18.763Z,33.13
2023-06-21T08:10:45.546Z,31.68
2023-06-21T08:13:12.252Z,30.99
2023-06-21T08:15:39.016Z,31.40
2023-06-21T08:18:05.723Z,31.66
2023-06-21T08:20:34.693Z,32.30
2023-06-21T08:23:01.705Z,31.97
2023-06-21T08:25:32.071Z,31.92
2023-06-21T08:28:01.460Z,30.77
2023-06-21T08:30:28.285Z,30.26
2023-06-21T08:32:55.290Z,29.65
2023-06-21T08:35:21.970Z,29.83
2023-06-21T08:38:18.419Z,30.90
2023-06-21T08:40:49.538Z,31.39
2023-06-21T08:43:16.179Z,31.75
2023-06-21T08:45:42.812Z,31.62
2023-06-21T08:48:10.793Z,32.07
2023-06-21T08:50:41.558Z,32.04
2023-06-21T08:53:13.793Z,32.03
2023-06-21T08:55:42.382Z,31.78
2023-06-21T08:58:17.419Z,31.53
2023-06-21T09:00:51.558Z,31.02
2023-06-21T09:03:27.572Z,31.61
2023-06-21T09:06:04.208Z,32.24
2023-06-21T09:08:34.934Z,31.92
2023-06-21T09:11:02.096Z,31.44
2023-06-21T09:13:32.959Z,31.05
2023-06-21T09:16:00.259Z,31.78
2023-06-21T09:18:27.610Z,32.13
2023-06-21T09:20:55.358Z,31.28
2023-06-21T09:23:23.871Z,29.94
2023-06-21T09:25:50.388Z,29.83
2023-06-21T09:28:17.074Z,30.86
2023-06-21T09:30:44.398Z,31.39
2023-06-21T09:33:11.662Z,31.92
2023-06-21T09:35:40.109Z,31.93
2023-06-21T09:38:24.382Z,32.30
2023-06-21T09:40:51.620Z,32.71
2023-06-21T09:43:19.814Z,32.69
2023-06-21T09:46:10.137Z,32.91
2023-06-21T09:48:38.738Z,33.06
2023-06-21T09:51:08.208Z,32.83
2023-06-21T09:53:48.762Z,33.22
2023-06-21T09:56:19.739Z,33.77
2023-06-21T09:58:50.080Z,33.59
2023-06-21T10:01:17.737Z,33.95
2023-06-21T10:03:46.290Z,34.23
2023-06-21T10:06:18.131Z,34.20
2023-06-21T10:08:52.536Z,33.81
2023-06-21T10:11:20.888Z,33.32
2023-06-21T10:13:47.522Z,33.29
2023-06-21T10:16:18.668Z,33.72
2023-06-21T10:18:45.553Z,34.26
2023-06-21T10:21:13.355Z,34.23
2023-06-21T10:23:42.950Z,33.62
2023-06-21T10:26:14.079Z,33.66
2023-06-21T10:28:43.502Z,33.84
2023-06-21T10:31:10.524Z,33.90
2023-06-21T10:33:38.281Z,33.45
2023-06-21T10:36:06.996Z,33.48
2023-06-21T10:38:42.729Z,33.30
2023-06-21T10:41:10.031Z,32.57
2023-06-21T10:43:36.668Z,31.93
2023-06-21T10:46:06.150Z,32.50
2023-06-21T10:48:34.529Z,32.69
2023-06-21T10:51:03.117Z,32.35
2023-06-21T10:53:32.577Z,32.70
2023-06-21T10:56:01.587Z,33.02
2023-06-21T10:58:29.911Z,33.37
2023-06-21T11:00:57.646Z,33.62
2023-06-21T11:03:27.092Z,33.68
2023-06-21T11:05:55.862Z,33.86
2023-06-21T11:08:38.118Z,34.01
2023-06-21T11:11:04.952Z,32.66
2023-06-21T11:13:36.706Z,32.06
2023-06-21T11:16:11.470Z,32.98
2023-06-21T11:18:38.673Z,34.05
2023-06-21T11:21:08.828Z,34.15
2023-06-21T11:23:52.573Z,33.71
2023-06-21T11:26:19.556Z,32.09
2023-06-21T11:28:50.257Z,31.81
2023-06-21T11:31:18.994Z,31.15
2023-06-21T11:33:47.335Z,30.70
2023-06-21T11:36:14.195Z,31.79
2023-06-21T11:38:50.445Z,32.47
2023-06-21T11:41:56.315Z,32.44
2023-06-21T11:44:29.132Z,32.05
2023-06-21T11:47:15.014Z,32.11
2023-06-21T11:49:48.102Z,32.31
2023-06-21T11:52:14.870Z,32.36
2023-06-21T11:54:41.369Z,32.57
2023-06-21T11:57:08.897Z,32.08
2023-06-21T11:59:36.448Z,31.81
2023-06-21T12:02:17.733Z,31.69
2023-06-21T12:04:45.272Z,31.63
2023-06-21T12:07:11.971Z,31.32
2023-06-21T12:09:40.024Z,31.39
2023-06-21T12:12:08.041Z,31.96
2023-06-21T12:14:36.548Z,31.97
2023-06-21T12:17:04.496Z,32.07
2023-06-21T12:19:31.720Z,32.30
2023-06-21T12:22:03.389Z,32.70
2023-06-21T12:24:31.046Z,32.47
2023-06-21T12:26:59.400Z,31.19
2023-06-21T12:29:28.218Z,30.10
2023-06-21T12:31:57.951Z,30.32
2023-06-21T12:34:26.626Z,30.96
2023-06-21T12:36:56.331Z,30.68
2023-06-21T12:39:23.952Z,30.57
2023-06-21T12:41:50.658Z,30.18
2023-06-21T12:44:20.036Z,29.74
2023-06-21T12:46:46.703Z,30.39
2023-06-21T12:49:16.507Z,31.07
2023-06-21T12:51:46.485Z,31.18
2023-06-21T12:54:15.096Z,30.49
2023-06-21T12:56:43.309Z,30.61
2023-06-21T12:59:10.200Z,30.51
2023-06-21T13:01:38.103Z,30.10
2023-06-21T13:04:13.391Z,30.43
2023-06-21T13:06:40.919Z,30.91
2023-06-21T13:09:07.882Z,31.44
2023-06-21T13:11:34.661Z,30.83
2023-06-21T13:14:01.591Z,30.21
2023-06-21T13:16:28.097Z,29.98
2023-06-21T13:18:55.389Z,30.31
2023-06-21T13:21:22.708Z,29.82
2023-06-21T13:23:51.131Z,29.52
2023-06-21T13:26:18.843Z,29.66
2023-06-21T13:28:45.695Z,30.29
2023-06-21T13:31:14.157Z,30.41
2023-06-21T13:33:41.455Z,29.84
2023-06-21T13:36:09.246Z,29.61
2023-06-21T13:38:36.121Z,29.49
2023-06-21T13:41:05.118Z,29.69
2023-06-21T13:43:32.283Z,30.14
2023-06-21T13:45:58.928Z,30.25
2023-06-21T13:48:25.650Z,29.99
2023-06-21T13:50:53.184Z,29.97
2023-06-21T13:53:22.476Z,30.10
2023-06-21T13:55:49.609Z,30.30
2023-06-21T13:58:16.196Z,30.27
2023-06-21T14:00:42.723Z,30.77
2023-06-21T14:03:09.468Z,31.07
2023-06-21T14:05:36.135Z,31.04
2023-06-21T14:08:04.577Z,30.66
2023-06-21T14:10:32.928Z,30.69
2023-06-21T14:13:00.050Z,30.82
2023-06-21T14:15:26.936Z,31.05
2023-06-21T14:17:53.734Z,31.14
2023-06-21T14:20:20.293Z,31.20
2023-06-21T14:22:46.827Z,30.85
2023-06-21T14:25:13.392Z,30.68
2023-06-21T14:27:40.634Z,30.48
2023-06-21T14:30:11.089Z,30.54
2023-06-21T14:32:37.753Z,30.85
2023-06-21T14:35:04.625Z,30.76
2023-06-21T14:37:31.313Z,30.55
2023-06-21T14:39:58.058Z,30.25
2023-06-21T14:42:28.943Z,30.25
2023-06-21T14:44:55.614Z,30.11
2023-06-21T14:47:22.280Z,29.92
2023-06-21T14:49:50.962Z,29.81
2023-06-21T14:52:17.993Z,29.31
2023-06-21T14:54:44.616Z,28.75
2023-06-21T14:57:12.498Z,28.71
2023-06-21T14:59:41.212Z,29.10
2023-06-21T15:02:10.258Z,29.38
2023-06-21T15:04:36.901Z,29.47
2023-06-21T15:07:03.519Z,29.44
2023-06-21T15:09:30.207Z,29.34
2023-06-21T15:11:57.876Z,29.23
2023-06-21T15:14:25.583Z,29.19
2023-06-21T15:16:52.160Z,28.67
2023-06-21T15:19:21.305Z,28.46
2023-06-21T15:21:48.632Z,28.67
2023-06-21T15:24:15.417Z,28.84
2023-06-21T15:26:42.455Z,28.83
2023-06-21T15:29:09.294Z,28.75
2023-06-21T15:31:37.185Z,28.72
2023-06-21T15:34:09.747Z,28.81
2023-06-21T15:36:38.874Z,28.59
2023-06-21T15:39:06.827Z,28.51
2023-06-21T15:41:33.973Z,28.58
2023-06-21T15:44:00.968Z,28.59
2023-06-21T15:46:29.311Z,28.49
2023-06-21T15:48:57.355Z,28.45
2023-06-21T15:51:25.149Z,28.43
2023-06-21T15:53:56.460Z,28.44
2023-06-21T15:56:24.393Z,28.36
2023-06-21T15:58:51.704Z,28.27
2023-06-21T16:01:18.849Z,28.21
2023-06-21T16:03:47.528Z,28.20
2023-06-21T16:06:15.576Z,28.17
2023-06-21T16:08:42.448Z,27.78
2023-06-21T16:11:12.240Z,27.50
2023-06-21T16:13:46.641Z,27.69
2023-06-21T16:16:14.331Z,27.90
2023-06-21T16:18:41.034Z,28.05
2023-06-21T16:21:07.712Z,28.08
2023-06-21T16:23:34.649Z,28.11
2023-06-21T16:26:01.728Z,28.17
2023-06-21T16:28:28.693Z,27.79
2023-06-21T16:30:55.286Z,27.41
2023-06-21T16:33:21.930Z,26.96
2023-06-21T16:35:49.238Z,27.17
2023-06-21T16:38:16.057Z,27.39
2023-06-21T16:40:42.776Z,27.50
2023-06-21T16:43:09.495Z,27.58
2023-06-21T16:45:36.088Z,27.42
2023-06-21T16:48:03.432Z,27.49
2023-06-21T16:50:30.141Z,27.31
2023-06-21T16:52:56.715Z,27.31
2023-06-21T16:55:23.311Z,27.18
2023-06-21T16:57:50.247Z,27.34
2023-06-21T17:00:17.133Z,27.46
2023-06-21T17:02:43.956Z,27.48
2023-06-21T17:05:10.696Z,27.55
2023-06-21T17:07:37.552Z,27.42
2023-06-21T17:10:04.488Z,27.27
2023-06-21T17:12:30.958Z,27.24
2023-06-21T17:14:57.761Z,27.18
2023-06-21T17:17:25.354Z,27.10
2023-06-21T17:19:51.912Z,27.16
2023-06-21T17:22:18.429Z,27.08
2023-06-21T17:24:44.949Z,26.96
2023-06-21T17:27:11.513Z,26.85
2023-06-21T17:29:38.023Z,26.80
2023-06-21T17:32:04.791Z,26.70
2023-06-21T17:34:31.829Z,26.72
2023-06-21T17:36:58.422Z,26.70
2023-06-21T17:39:25.402Z,26.47
2023-06-21T17:41:52.054Z,26.18
2023-06-21T17:44:18.658Z,25.86
2023-06-21T17:46:45.289Z,25.75
2023-06-21T17:49:12.058Z,25.55
2023-06-21T17:51:38.570Z,25.30
2023-06-21T17:54:05.092Z,25.19
2023-06-21T17:56:33.672Z,25.14
2023-06-21T17:59:01.515Z,25.08
2023-06-21T18:01:28.143Z,25.00
2023-06-21T18:03:54.977Z,24.96
2023-06-21T18:06:23.070Z,24.85
2023-06-21T18:08:49.513Z,24.70
2023-06-21T18:11:16.085Z,24.68
2023-06-21T18:13:42.578Z,24.68
2023-06-21T18:16:08.992Z,24.60
2023-06-21T18:18:35.465Z,24.64
2023-06-21T18:21:02.000Z,24.62
2023-06-21T18:23:28.870Z,24.57
2023-06-21T18:25:57.290Z,24.43
2023-06-21T18:28:24.643Z,24.43
2023-06-21T18:30:51.270Z,24.36
2023-06-21T18:33:18.191Z,24.27
2023-06-21T18:35:44.823Z,24.19
2023-06-21T18:38:11.323Z,24.09
2023-06-21T18:40:38.566Z,23.96
2023-06-21T18:43:05.061Z,23.92
2023-06-21T18:45:31.516Z,23.85
2023-06-21T18:47:58.050Z,23.76
2023-06-21T18:50:24.717Z,23.55
2023-06-21T18:52:51.256Z,23.48
2023-06-21T18:55:17.857Z,23.43
2023-06-21T18:57:44.411Z,23.38
2023-06-21T19:00:13.566Z,23.34
2023-06-21T19:02:40.213Z,23.27
2023-06-21T19:05:07.355Z,23.23
2023-06-21T19:07:34.250Z,23.18
2023-06-21T19:10:00.915Z,23.09
2023-06-21T19:12:27.867Z,23.01
2023-06-21T19:14:54.801Z,22.92
2023-06-21T19:17:21.871Z,22.85
2023-06-21T19:19:48.601Z,22.75
2023-06-21T19:22:15.346Z,22.73
2023-06-21T19:24:42.069Z,22.66
2023-06-21T19:27:23.609Z,22.61
2023-06-21T19:29:53.151Z,22.51
2023-06-21T19:32:22.512Z,22.46
2023-06-21T19:34:49.568Z,22.44
2023-06-21T19:37:31.459Z,22.40
2023-06-21T19:39:58.321Z,22.35
2023-06-21T19:42:24.939Z,22.27
2023-06-21T19:44:54.121Z,22.20
2023-06-21T19:47:20.761Z,22.16
2023-06-21T19:49:47.373Z,22.11
2023-06-21T19:52:17.338Z,22.06
2023-06-21T19:54:44.030Z,22.02
2023-06-21T19:57:10.685Z,21.96
2023-06-21T19:59:37.459Z,21.90
2023-06-21T20:02:04.593Z,21.88
2023-06-21T20:04:31.544Z,21.84
2023-06-21T20:06:58.303Z,21.78
2023-06-21T20:09:25.128Z,21.73
2023-06-21T20:11:51.854Z,21.65
2023-06-21T20:14:18.645Z,21.58
2023-06-21T20:16:45.937Z,21.50
2023-06-21T20:19:16.924Z,21.45
2023-06-21T20:21:46.755Z,21.40
2023-06-21T20:24:16.995Z,21.33
2023-06-21T20:26:44.022Z,21.26
2023-06-21T20:29:10.959Z,21.18
2023-06-21T20:31:38.197Z,21.08
2023-06-21T20:34:08.938Z,21.00
2023-06-21T20:36:36.835Z,20.95
2023-06-21T20:39:08.845Z,20.92
2023-06-21T20:41:35.619Z,20.88
2023-06-21T20:44:02.941Z,20.78
2023-06-21T20:46:29.759Z,20.73
2023-06-21T20:48:59.534Z,20.66
2023-06-21T20:51:26.375Z,20.61
2023-06-21T20:53:52.831Z,20.57
2023-06-21T20:56:19.512Z,20.54
2023-06-21T20:58:46.069Z,20.50
2023-06-21T21:01:15.009Z,20.49
2023-06-21T21:03:42.603Z,20.49
2023-06-21T21:06:09.294Z,20.48
2023-06-21T21:08:38.365Z,20.45
2023-06-21T21:11:05.892Z,20.36
2023-06-21T21:13:34.400Z,20.29
2023-06-21T21:16:00.934Z,20.20
2023-06-21T21:18:27.463Z,20.11
2023-06-21T21:20:53.918Z,20.07
2023-06-21T21:23:21.165Z,20.03
2023-06-21T21:25:48.147Z,19.99
2023-06-21T21:28:15.249Z,20.03
2023-06-21T21:30:41.858Z,20.08
2023-06-21T21:33:08.398Z,20.10
2023-06-21T21:35:35.224Z,20.10
2023-06-21T21:38:06.895Z,20.12
2023-06-21T21:40:33.731Z,20.12
2023-06-21T21:43:00.448Z,20.14
2023-06-21T21:45:26.909Z,20.12
2023-06-21T21:47:53.528Z,20.12
2023-06-21T21:50:20.166Z,20.10
2023-06-21T21:52:46.754Z,20.02
2023-06-21T21:55:17.062Z,19.92
2023-06-21T21:57:43.563Z,19.85
2023-06-21T22:00:11.905Z,19.83
2023-06-21T22:02:42.041Z,19.75
2023-06-21T22:05:08.687Z,19.67
2023-06-21T22:07:35.148Z,19.66
2023-06-21T22:10:02.947Z,19.66
2023-06-21T22:12:29.474Z,19.66
2023-06-21T22:14:56.102Z,19.70
2023-06-21T22:17:43.151Z,19.73
2023-06-21T22:20:16.411Z,19.71
2023-06-21T22:22:45.338Z,19.66
2023-06-21T22:25:14.272Z,19.64
2023-06-21T22:27:42.722Z,19.67
2023-06-21T22:30:09.999Z,19.76
2023-06-21T22:32:36.548Z,19.80
2023-06-21T22:35:03.990Z,19.76
2023-06-21T22:37:30.699Z,19.75
2023-06-21T22:39:57.246Z,19.73
2023-06-21T22:42:23.730Z,19.70
2023-06-21T22:44:50.235Z,19.71
2023-06-21T22:47:18.552Z,19.68
2023-06-21T22:49:45.735Z,19.66
2023-06-21T22:52:12.354Z,19.66
2023-06-21T22:54:40.275Z,19.64
2023-06-21T22:57:09.103Z,19.56
2023-06-21T22:59:36.205Z,19.53
2023-06-21T23:02:02.720Z,19.50
2023-06-21T23:04:29.975Z,19.43
2023-06-21T23:06:56.703Z,19.37
2023-06-21T23:09:23.727Z,19.34
2023-06-21T23:11:50.448Z,19.24
2023-06-21T23:14:19.044Z,19.17
2023-06-21T23:16:45.757Z,19.12
2023-06-21T23:19:14.157Z,19.04
2023-06-21T23:21:42.196Z,19.01
2023-06-21T23:24:09.386Z,18.90
2023-06-21T23:26:35.929Z,18.83
2023-06-21T23:29:03.261Z,18.80
2023-06-21T23:31:34.670Z,18.80
2023-06-21T23:34:02.392Z,18.75
2023-06-21T23:36:31.326Z,18.70
2023-06-21T23:39:01.158Z,18.64
2023-06-21T23:41:31.843Z,18.62
2023-06-21T23:44:02.650Z,18.60
2023-06-21T23:46:33.561Z,18.59
2023-06-21T23:49:02.038Z,18.56
2023-06-21T23:51:31.375Z,18.49
2023-06-21T23:53:58.752Z,18.43
2023-06-21T23:56:27.770Z,18.38
2023-06-21T23:58:54.851Z,18.34
